Time;durP1;ratioP1;P1;durP2;ratioP2;P2;SDS_P1;SDS_P2;PMS_P1;PMS_P2;Temp;Humidity;BMP_temperature;BMP_pressure;BME280_temperature;BME280_humidity;BME280_pressure;Samples;Min_cycle;Max_cycle;Signal;HPM_P1;HPM_P2
2022/04/12 00:00:00;;;;;;;8.90;4.97;;;7.70;37.70;;;;;;5015293;28;20488;-83
2022/04/12 00:02:28;;;;;;;8.50;4.77;;;7.50;38.30;;;;;;5016678;28;20464;-83
2022/04/12 00:04:55;;;;;;;11.10;4.70;;;7.40;38.70;;;;;;5016525;28;20453;-83
2022/04/12 00:07:23;;;;;;;11.90;4.90;;;7.50;38.60;;;;;;5017095;28;20457;-83
2022/04/12 00:09:50;;;;;;;10.07;4.57;;;7.50;37.30;;;;;;5015791;28;20476;-84
2022/04/12 00:12:16;;;;;;;13.20;5.20;;;7.60;36.90;;;;;;5016229;28;20460;-83
2022/04/12 00:14:43;;;;;;;9.50;4.67;;;7.60;35.70;;;;;;5016623;28;20456;-83
2022/04/12 00:19:55;;;;;;;9.73;5.30;;;7.80;35.00;;;;;;5015461;28;20460;-83
2022/04/12 00:22:23;;;;;;;9.37;4.83;;;7.70;34.90;;;;;;5016396;28;20453;-83
2022/04/12 00:24:49;;;;;;;9.17;5.07;;;7.80;35.60;;;;;;5015786;28;20841;-83
2022/04/12 00:27:16;;;;;;;8.00;5.57;;;7.80;35.60;;;;;;5016433;28;20464;-83
2022/04/12 00:29:43;;;;;;;11.00;5.40;;;7.90;36.00;;;;;;5014491;28;20480;-83
2022/04/12 00:32:10;;;;;;;8.67;5.30;;;7.90;35.80;;;;;;5016917;28;20460;-83
2022/04/12 00:34:37;;;;;;;8.40;4.73;;;7.80;36.20;;;;;;5016284;28;20481;-83
2022/04/12 00:37:04;;;;;;;9.50;4.80;;;7.80;36.20;;;;;;5015487;28;20481;-83
2022/04/12 00:39:34;;;;;;;10.93;5.53;;;7.80;37.10;;;;;;5014988;28;20477;-83
2022/04/12 00:42:01;;;;;;;10.77;6.20;;;7.60;38.00;;;;;;5015678;28;21179;-83
2022/04/12 00:44:28;;;;;;;10.57;6.30;;;7.60;39.10;;;;;;5016007;28;20468;-83
2022/04/12 00:46:55;;;;;;;10.37;5.97;;;7.70;39.60;;;;;;5015468;28;20453;-83
2022/04/12 00:49:23;;;;;;;9.47;6.20;;;7.70;40.40;;;;;;5014141;28;20480;-83
2022/04/12 00:51:50;;;;;;;10.07;6.17;;;7.70;41.70;;;;;;5014805;28;20457;-83
2022/04/12 00:54:19;;;;;;;11.70;7.10;;;7.60;42.10;;;;;;5014896;28;20841;-83
2022/04/12 00:56:48;;;;;;;12.50;6.30;;;7.60;41.80;;;;;;5015240;28;20539;-83
2022/04/12 00:59:15;;;;;;;13.47;6.87;;;7.50;42.70;;;;;;5014297;28;20485;-83
2022/04/12 01:01:42;;;;;;;9.30;5.93;;;7.40;43.80;;;;;;5015166;28;20456;-83
2022/04/12 01:04:09;;;;;;;10.77;6.33;;;7.30;44.90;;;;;;5015625;28;20453;-83
2022/04/12 01:06:37;;;;;;;11.30;7.03;;;7.30;45.40;;;;;;5015784;28;20460;-83
2022/04/12 01:09:05;;;;;;;13.57;6.73;;;7.40;44.40;;;;;;5014678;28;20457;-83
2022/04/12 01:11:32;;;;;;;9.50;6.23;;;7.30;44.30;;;;;;5015517;28;20836;-83
2022/04/12 01:14:00;;;;;;;10.53;6.97;;;7.40;43.80;;;;;;5015343;28;20479;-83
2022/04/12 01:16:27;;;;;;;9.67;6.50;;;7.40;44.10;;;;;;5015122;28;20484;-83
2022/04/12 01:18:53;;;;;;;8.93;6.70;;;7.40;44.10;;;;;;5014348;28;20457;-83
2022/04/12 01:21:21;;;;;;;11.50;6.20;;;7.60;42.80;;;;;;5015595;28;20453;-83
2022/04/12 01:24:02;;;;;;;9.70;5.80;;;7.70;40.80;;;;;;5015473;28;20823;-83
2022/04/12 01:26:29;;;;;;;9.40;6.03;;;7.80;40.40;;;;;;5015250;28;20453;-83
2022/04/12 01:28:56;;;;;;;10.33;4.97;;;7.80;39.80;;;;;;5014444;28;20452;-83
2022/04/12 01:31:25;;;;;;;8.47;5.30;;;7.90;37.40;;;;;;5014914;28;20449;-83
2022/04/12 01:33:52;;;;;;;9.33;5.43;;;8.30;37.40;;;;;;5014467;28;20472;-83
2022/04/12 01:36:18;;;;;;;9.10;6.20;;;8.30;36.10;;;;;;5014847;28;20913;-83
2022/04/12 01:38:46;;;;;;;9.27;5.50;;;8.40;34.70;;;;;;5013949;28;20460;-83
2022/04/12 01:41:14;;;;;;;9.53;5.90;;;8.50;34.70;;;;;;5013747;28;20453;-83
2022/04/12 01:43:41;;;;;;;9.27;5.80;;;8.60;34.30;;;;;;5014655;28;20457;-83
2022/04/12 01:46:07;;;;;;;10.63;6.57;;;8.60;34.00;;;;;;5014482;28;20461;-83
2022/04/12 01:48:34;;;;;;;10.77;6.00;;;8.60;33.60;;;;;;5013964;28;20453;-83
2022/04/12 01:51:01;;;;;;;8.00;5.40;;;8.70;32.70;;;;;;5014168;28;20477;-83
2022/04/12 01:53:28;;;;;;;8.50;5.57;;;8.80;32.90;;;;;;5014499;28;20981;-83
2022/04/12 01:55:54;;;;;;;12.97;5.70;;;8.80;33.10;;;;;;5014601;28;20477;-84
2022/04/12 01:58:22;;;;;;;10.10;4.97;;;8.70;32.60;;;;;;5013474;28;20457;-83
2022/04/12 02:00:49;;;;;;;9.70;5.23;;;8.90;32.80;;;;;;5036366;23;21017;-85
2022/04/12 02:03:16;;;;;;;10.50;5.63;;;8.80;32.70;;;;;;5014211;28;20948;-82
2022/04/12 02:05:42;;;;;;;10.53;5.77;;;8.90;32.00;;;;;;5013995;28;20457;-82
2022/04/12 02:08:09;;;;;;;10.70;6.47;;;8.80;31.70;;;;;;5013441;28;20453;-81
2022/04/12 02:10:36;;;;;;;11.03;6.43;;;8.90;32.00;;;;;;5013813;28;20473;-81
2022/04/12 02:13:03;;;;;;;9.80;5.80;;;8.90;31.40;;;;;;5013765;28;20984;-81
2022/04/12 02:15:33;;;;;;;9.80;6.00;;;8.90;31.00;;;;;;5013705;28;20741;-82
2022/04/12 02:17:59;;;;;;;11.47;5.53;;;8.90;31.80;;;;;;5013574;28;20480;-82
2022/04/12 02:20:27;;;;;;;15.17;6.13;;;9.00;31.70;;;;;;5013068;28;20477;-85
2022/04/12 02:22:54;;;;;;;13.27;5.90;;;9.00;32.30;;;;;;5013474;28;20954;-82
2022/04/12 02:25:21;;;;;;;15.30;6.27;;;9.00;32.10;;;;;;5013998;28;20465;-83
2022/04/12 02:27:47;;;;;;;8.50;5.63;;;8.90;32.50;;;;;;5013384;28;20453;-82
2022/04/12 02:30:15;;;;;;;11.07;6.33;;;8.90;34.20;;;;;;5012656;28;20989;-82
2022/04/12 02:32:43;;;;;;;11.70;6.07;;;8.90;35.10;;;;;;5013327;28;20828;-81
2022/04/12 02:35:11;;;;;;;9.80;6.23;;;8.80;36.30;;;;;;5013557;28;20452;-81
2022/04/12 02:37:37;;;;;;;9.20;6.27;;;8.70;37.00;;;;;;5013105;28;20477;-82
2022/04/12 02:40:05;;;;;;;9.90;5.90;;;8.80;36.70;;;;;;5012592;28;20488;-82
2022/04/12 02:42:32;;;;;;;9.50;5.80;;;8.60;35.30;;;;;;5013315;28;20480;-82
2022/04/12 02:44:59;;;;;;;9.23;5.73;;;8.60;36.10;;;;;;5013169;28;20453;-82
2022/04/12 02:47:28;;;;;;;9.50;6.07;;;8.50;34.70;;;;;;5013315;28;20457;-85
2022/04/12 02:49:56;;;;;;;8.93;4.77;;;8.70;34.10;;;;;;5011978;28;20480;-82
2022/04/12 02:52:22;;;;;;;11.80;4.93;;;8.70;34.40;;;;;;5013139;28;20457;-82
2022/04/12 02:54:49;;;;;;;13.33;5.60;;;8.70;34.00;;;;;;5013680;28;20832;-82
2022/04/12 02:57:16;;;;;;;12.40;5.67;;;8.80;33.80;;;;;;5013101;28;20480;-82
2022/04/12 02:59:43;;;;;;;10.63;5.90;;;8.90;33.80;;;;;;5012398;28;20492;-82
2022/04/12 03:02:09;;;;;;;11.37;5.83;;;8.80;33.30;;;;;;5013160;28;20453;-82
2022/04/12 03:04:36;;;;;;;9.23;5.17;;;8.90;32.90;;;;;;5012918;28;20460;-82
2022/04/12 03:07:04;;;;;;;10.20;6.07;;;9.00;32.70;;;;;;5012956;28;20453;-82
2022/04/12 03:09:31;;;;;;;9.83;6.03;;;9.00;32.70;;;;;;5012217;28;20500;-83
2022/04/12 03:11:58;;;;;;;8.33;5.23;;;9.00;32.10;;;;;;5012886;28;20464;-82
2022/04/12 03:14:25;;;;;;;11.40;6.43;;;9.10;32.10;;;;;;5012589;28;20466;-82
2022/04/12 03:16:52;;;;;;;13.47;7.53;;;9.20;31.20;;;;;;5012724;28;20866;-82
2022/04/12 03:19:18;;;;;;;10.93;6.27;;;9.20;31.30;;;;;;5011946;28;20472;-82
2022/04/12 03:21:45;;;;;;;16.10;6.57;;;9.20;30.50;;;;;;5012756;28;20453;-82
2022/04/12 03:24:13;;;;;;;7.83;4.93;;;9.20;30.60;;;;;;5012786;28;20833;-82
2022/04/12 03:26:40;;;;;;;10.17;4.77;;;9.20;30.90;;;;;;5012553;28;20806;-83
2022/04/12 03:29:07;;;;;;;8.20;5.67;;;9.20;30.70;;;;;;5011920;28;20452;-82
2022/04/12 03:31:34;;;;;;;10.07;5.70;;;9.10;30.60;;;;;;5012421;28;20477;-82
2022/04/12 03:34:00;;;;;;;14.57;6.30;;;9.10;31.00;;;;;;5013048;28;20457;-83
2022/04/12 03:36:27;;;;;;;8.70;5.80;;;9.20;30.90;;;;;;5012800;28;20480;-81
2022/04/12 03:38:54;;;;;;;12.07;6.10;;;9.20;31.10;;;;;;5011907;28;20457;-82
2022/04/12 03:41:23;;;;;;;10.47;6.10;;;9.20;31.70;;;;;;5012709;28;20479;-85
2022/04/12 03:43:50;;;;;;;10.93;5.60;;;9.30;31.80;;;;;;5012937;28;20464;-82
2022/04/12 03:46:17;;;;;;;10.60;5.50;;;9.00;31.20;;;;;;5013255;28;20511;-82
2022/04/12 03:48:45;;;;;;;13.60;7.00;;;9.10;30.90;;;;;;5012279;28;20464;-82
2022/04/12 03:51:13;;;;;;;9.40;6.40;;;9.10;31.10;;;;;;5012452;28;20495;-82
2022/04/12 03:53:40;;;;;;;11.63;5.97;;;9.00;31.60;;;;;;5012514;28;20452;-82
2022/04/12 03:56:07;;;;;;;10.43;5.57;;;8.90;31.90;;;;;;5012389;28;20481;-82
2022/04/12 03:58:35;;;;;;;9.13;5.67;;;8.80;32.00;;;;;;5012040;28;20453;-82
2022/04/12 04:01:03;;;;;;;9.17;5.30;;;8.70;32.30;;;;;;5012322;28;20485;-82
2022/04/12 04:03:30;;;;;;;10.73;6.00;;;8.70;33.10;;;;;;5013624;28;20457;-82
2022/04/12 04:05:57;;;;;;;14.63;7.30;;;8.40;33.40;;;;;;5016013;28;20909;-82
2022/04/12 04:08:24;;;;;;;8.30;5.13;;;8.40;34.50;;;;;;5015250;28;20841;-82
2022/04/12 04:10:51;;;;;;;12.80;6.43;;;8.30;34.50;;;;;;5016031;28;20997;-82
2022/04/12 04:13:18;;;;;;;12.00;5.53;;;8.30;34.50;;;;;;5016081;28;20856;-82
2022/04/12 04:15:46;;;;;;;10.63;6.03;;;8.20;34.40;;;;;;5015726;28;20453;-83
2022/04/12 04:18:14;;;;;;;8.40;5.60;;;8.20;34.80;;;;;;5014960;28;20508;-82
2022/04/12 04:20:40;;;;;;;10.70;6.27;;;8.20;35.20;;;;;;5015631;28;20538;-82
2022/04/12 04:23:07;;;;;;;10.47;5.40;;;8.10;35.40;;;;;;5015378;28;20968;-83
2022/04/12 04:25:34;;;;;;;11.37;6.30;;;8.20;36.00;;;;;;5015811;28;20461;-82
2022/04/12 04:28:02;;;;;;;9.60;6.27;;;8.00;36.60;;;;;;5015669;28;20480;-82
2022/04/12 04:30:31;;;;;;;9.20;5.30;;;7.90;36.60;;;;;;5014785;28;20868;-82
2022/04/12 04:32:59;;;;;;;10.37;6.37;;;7.90;36.80;;;;;;5015669;28;20457;-82
2022/04/12 04:35:26;;;;;;;8.73;5.83;;;7.70;38.00;;;;;;5015902;28;20822;-82
2022/04/12 04:37:53;;;;;;;8.80;6.37;;;7.50;40.80;;;;;;5016064;28;20484;-82
2022/04/12 04:40:22;;;;;;;11.27;6.80;;;7.30;43.20;;;;;;5014912;28;20532;-86
2022/04/12 04:42:51;;;;;;;9.10;6.73;;;7.00;45.00;;;;;;5016248;28;20464;-82
2022/04/12 04:45:18;;;;;;;12.67;6.87;;;7.00;45.60;;;;;;5015546;28;20456;-82
2022/04/12 04:47:52;;;;;;;12.37;7.40;;;6.70;46.70;;;;;;5016024;28;20462;-82
2022/04/12 04:50:21;;;;;;;10.13;5.97;;;6.80;47.70;;;;;;5014695;28;20476;-83
2022/04/12 04:52:48;;;;;;;7.83;5.60;;;6.80;47.70;;;;;;5015472;28;20459;-82
2022/04/12 04:55:15;;;;;;;8.70;5.97;;;6.70;47.00;;;;;;5015001;28;20463;-85
2022/04/12 04:57:42;;;;;;;10.20;6.40;;;6.90;46.00;;;;;;5013163;28;20508;-82
2022/04/12 05:00:15;;;;;;;10.60;6.40;;;6.90;45.30;;;;;;5014180;28;20485;-84
2022/04/12 05:02:42;;;;;;;8.40;5.20;;;7.20;43.90;;;;;;5015180;28;20807;-82
2022/04/12 05:05:09;;;;;;;9.07;5.13;;;7.60;42.80;;;;;;5014665;28;20457;-81
2022/04/12 05:07:37;;;;;;;9.00;4.97;;;7.80;40.50;;;;;;5015241;28;20449;-81
2022/04/12 05:10:05;;;;;;;10.43;5.83;;;8.00;39.50;;;;;;5013792;28;20508;-82
2022/04/12 05:12:32;;;;;;;9.10;5.57;;;8.10;39.50;;;;;;5015575;28;20453;-81
2022/04/12 05:14:58;;;;;;;8.00;5.20;;;8.20;39.30;;;;;;5014999;28;20457;-81
2022/04/12 05:17:26;;;;;;;8.40;5.30;;;8.30;39.30;;;;;;5014713;28;20484;-82
2022/04/12 05:19:53;;;;;;;9.67;5.00;;;8.30;38.80;;;;;;5014029;28;20477;-82
2022/04/12 05:22:20;;;;;;;8.37;5.10;;;8.30;38.50;;;;;;5014828;28;20464;-82
2022/04/12 05:24:48;;;;;;;10.47;5.10;;;8.40;38.90;;;;;;5014523;28;20822;-82
2022/04/12 05:27:15;;;;;;;11.70;5.73;;;8.50;38.80;;;;;;5014539;28;20453;-82
2022/04/12 05:29:43;;;;;;;9.07;5.70;;;8.40;38.10;;;;;;5013805;28;20481;-81
2022/04/12 05:32:12;;;;;;;10.47;5.70;;;8.70;37.50;;;;;;5014689;28;20457;-82
2022/04/12 05:34:39;;;;;;;13.03;5.47;;;8.50;37.30;;;;;;5014633;28;20895;-82
2022/04/12 05:37:06;;;;;;;10.33;5.30;;;8.60;38.60;;;;;;5014021;28;20997;-80
2022/04/12 05:39:34;;;;;;;8.80;4.93;;;8.60;36.70;;;;;;5013192;28;20477;-83
2022/04/12 05:42:02;;;;;;;9.00;5.13;;;8.60;37.50;;;;;;5014211;28;20457;-81
2022/04/12 05:44:29;;;;;;;12.30;6.77;;;8.70;37.00;;;;;;5011638;28;20457;-82
2022/04/12 05:46:56;;;;;;;12.50;5.10;;;8.70;37.30;;;;;;5012394;28;20965;-82
2022/04/12 05:49:22;;;;;;;11.30;5.30;;;8.80;36.70;;;;;;5012954;28;20934;-82
2022/04/12 05:51:49;;;;;;;9.40;5.53;;;8.90;37.20;;;;;;5011618;28;20461;-83
2022/04/12 05:54:16;;;;;;;9.27;5.50;;;9.00;35.90;;;;;;5013317;28;20454;-83
2022/04/12 05:56:43;;;;;;;10.63;6.17;;;9.10;36.80;;;;;;5014273;28;20476;-82
2022/04/12 05:59:11;;;;;;;8.80;5.20;;;9.20;37.30;;;;;;5011750;28;20454;-82
2022/04/12 06:01:38;;;;;;;8.93;5.43;;;9.20;36.90;;;;;;5014166;28;20445;-82
2022/04/12 06:04:05;;;;;;;11.83;5.67;;;9.10;35.40;;;;;;5014079;28;20481;-83
2022/04/12 06:06:33;;;;;;;10.17;5.97;;;9.20;35.30;;;;;;5012332;28;20503;-81
2022/04/12 06:09:00;;;;;;;23.53;15.40;;;9.40;34.90;;;;;;5013319;28;20480;-82
2022/04/12 06:11:27;;;;;;;22.60;16.53;;;9.50;35.40;;;;;;5014157;28;20476;-82
2022/04/12 06:13:54;;;;;;;18.57;15.00;;;9.50;34.40;;;;;;5011799;28;20460;-83
2022/04/12 06:16:22;;;;;;;35.30;28.77;;;9.70;33.90;;;;;;5013405;28;20841;-82
2022/04/12 06:18:49;;;;;;;40.20;34.40;;;9.80;34.30;;;;;;5012307;28;20473;-83
2022/04/12 06:21:16;;;;;;;59.97;54.47;;;9.90;32.90;;;;;;5012606;28;20477;-83
2022/04/12 06:23:44;;;;;;;17.40;15.50;;;10.10;32.20;;;;;;5014663;28;20464;-82
2022/04/12 06:26:11;;;;;;;17.30;9.60;;;10.10;30.80;;;;;;5016726;28;20481;-86
2022/04/12 06:28:38;;;;;;;17.07;13.20;;;10.20;30.90;;;;;;5014097;28;20853;-83
2022/04/12 06:31:05;;;;;;;15.53;11.10;;;10.30;30.00;;;;;;5014219;28;20473;-83
2022/04/12 06:33:33;;;;;;;10.80;6.33;;;10.40;30.00;;;;;;5012442;28;20881;-83
2022/04/12 06:36:00;;;;;;;12.37;5.73;;;10.50;29.00;;;;;;5013787;28;20453;-83
2022/04/12 06:38:27;;;;;;;13.13;6.00;;;10.60;29.20;;;;;;5012797;28;20484;-83
2022/04/12 06:40:54;;;;;;;11.33;6.63;;;10.70;27.90;;;;;;5012148;28;20500;-82
2022/04/12 06:43:20;;;;;;;13.40;9.53;;;10.70;27.60;;;;;;5013013;28;20460;-82
2022/04/12 06:45:47;;;;;;;13.17;5.77;;;10.80;28.00;;;;;;5012810;28;20457;-85
2022/04/12 06:48:14;;;;;;;12.30;6.00;;;10.80;27.70;;;;;;5011982;28;20453;-84
2022/04/12 06:50:42;;;;;;;11.33;5.90;;;11.00;28.20;;;;;;5013151;28;20473;-83
2022/04/12 06:53:09;;;;;;;10.60;5.80;;;10.80;28.80;;;;;;5013665;28;20456;-83
2022/04/12 06:55:35;;;;;;;10.83;6.20;;;10.90;28.20;;;;;;5011442;28;20460;-84
2022/04/12 06:58:02;;;;;;;12.63;7.50;;;11.00;27.70;;;;;;5012532;28;20477;-84
2022/04/12 07:00:29;;;;;;;13.20;5.40;;;11.10;28.00;;;;;;5012615;28;20488;-83
2022/04/12 07:02:56;;;;;;;9.20;6.33;;;11.10;27.50;;;;;;5012857;28;20954;-82
2022/04/12 07:05:22;;;;;;;8.37;5.20;;;11.10;27.80;;;;;;5011965;28;20457;-83
2022/04/12 07:07:50;;;;;;;10.03;6.20;;;11.20;27.90;;;;;;5013680;28;20453;-83
2022/04/12 07:10:18;;;;;;;10.00;5.30;;;11.20;27.00;;;;;;5012825;28;20480;-83
2022/04/12 07:12:45;;;;;;;9.70;6.03;;;11.40;27.80;;;;;;5013488;28;20452;-82
2022/04/12 07:15:14;;;;;;;11.90;5.97;;;11.50;28.00;;;;;;5012779;28;20468;-83
2022/04/12 07:17:41;;;;;;;13.60;5.57;;;11.60;26.30;;;;;;5012014;28;20520;-84
2022/04/12 07:20:09;;;;;;;11.83;5.67;;;11.80;26.80;;;;;;5012153;28;20480;-82
2022/04/12 07:22:36;;;;;;;11.43;5.60;;;11.70;28.20;;;;;;5012650;28;20460;-83
2022/04/12 07:25:05;;;;;;;9.03;5.33;;;11.70;27.00;;;;;;5013441;28;20468;-82
2022/04/12 07:27:34;;;;;;;9.43;5.40;;;11.70;28.20;;;;;;5012651;28;20452;-83
2022/04/12 07:30:01;;;;;;;13.10;6.50;;;11.70;27.10;;;;;;5011934;28;20488;-82
2022/04/12 07:32:28;;;;;;;11.07;6.70;;;11.90;26.90;;;;;;5012475;28;20457;-84
2022/04/12 07:34:54;;;;;;;10.03;5.17;;;12.00;26.00;;;;;;5012266;28;20455;-83
2022/04/12 07:37:21;;;;;;;10.10;5.33;;;12.10;26.80;;;;;;5011909;28;20473;-83
2022/04/12 07:39:48;;;;;;;8.93;5.77;;;12.20;26.20;;;;;;5014668;28;20473;-82
2022/04/12 07:42:16;;;;;;;16.60;6.20;;;12.40;26.40;;;;;;5015894;28;20453;-83
2022/04/12 07:44:43;;;;;;;12.03;6.30;;;12.50;25.00;;;;;;5015991;28;20515;-83
2022/04/12 07:47:10;;;;;;;9.33;5.93;;;12.70;25.90;;;;;;5015987;28;20511;-83
2022/04/12 07:49:37;;;;;;;12.70;5.10;;;12.80;25.40;;;;;;5015295;28;20480;-87
2022/04/12 07:52:04;;;;;;;12.07;6.07;;;13.20;27.60;;;;;;5016273;28;20485;-88
2022/04/12 07:54:31;;;;;;;10.60;5.73;;;13.10;24.30;;;;;;5015741;28;20460;-83
2022/04/12 07:56:58;;;;;;;12.33;6.60;;;13.30;23.30;;;;;;5015721;28;20456;-83
2022/04/12 07:59:26;;;;;;;9.87;5.07;;;13.50;23.70;;;;;;5013891;28;20449;-85
2022/04/12 08:01:53;;;;;;;8.50;5.27;;;13.90;24.10;;;;;;5040116;23;20873;-85
2022/04/12 08:04:19;;;;;;;12.37;5.80;;;14.10;23.20;;;;;;5017822;28;20465;-84
2022/04/12 08:06:46;;;;;;;10.93;4.70;;;14.20;20.50;;;;;;5018659;28;20460;-83
2022/04/12 08:09:13;;;;;;;12.20;6.33;;;14.50;22.10;;;;;;5017365;28;20446;-84
2022/04/12 08:11:40;;;;;;;11.23;5.90;;;14.70;21.10;;;;;;5017460;28;20473;-85
2022/04/12 08:14:07;;;;;;;9.10;5.17;;;15.00;22.00;;;;;;5018433;28;20467;-83
2022/04/12 08:16:35;;;;;;;12.03;6.03;;;15.30;20.30;;;;;;5018096;28;20454;-84
2022/04/12 08:19:02;;;;;;;10.17;5.23;;;15.30;19.10;;;;;;5016584;28;20864;-85
2022/04/12 08:21:33;;;;;;;8.90;5.03;;;15.40;18.90;;;;;;5016889;28;20482;-83
2022/04/12 08:24:00;;;;;;;9.33;5.67;;;15.40;17.60;;;;;;5017632;28;20453;-84
2022/04/12 08:26:27;;;;;;;10.73;5.20;;;15.40;18.00;;;;;;5017330;28;20465;-86
2022/04/12 08:28:54;;;;;;;8.73;5.40;;;15.50;17.70;;;;;;5015736;28;20892;-82
2022/04/12 08:31:20;;;;;;;10.20;4.87;;;15.70;18.80;;;;;;5016664;28;20476;-85
2022/04/12 08:33:49;;;;;;;10.90;5.43;;;15.80;18.90;;;;;;5017410;28;20449;-84
2022/04/12 08:36:16;;;;;;;8.83;4.20;;;16.00;19.60;;;;;;5017459;28;20453;-84
2022/04/12 08:38:44;;;;;;;10.57;5.10;;;16.10;17.40;;;;;;5016553;28;20599;-86
2022/04/12 08:41:12;;;;;;;8.73;4.97;;;16.40;15.40;;;;;;5017175;28;20636;-85
2022/04/12 08:43:41;;;;;;;12.13;4.63;;;16.50;16.00;;;;;;5016198;28;20464;-84
2022/04/12 08:46:09;;;;;;;9.53;5.13;;;16.60;17.20;;;;;;5016135;28;20457;-84
2022/04/12 08:48:36;;;;;;;9.53;5.53;;;16.60;15.80;;;;;;5015305;28;20456;-84
2022/04/12 08:51:05;;;;;;;12.37;4.80;;;17.00;15.20;;;;;;5015832;28;20477;-84
2022/04/12 08:53:32;;;;;;;8.83;4.97;;;17.30;15.60;;;;;;5015692;28;20458;-85
2022/04/12 08:55:59;;;;;;;8.93;5.20;;;17.30;12.40;;;;;;5013721;28;20845;-84
2022/04/12 08:58:27;;;;;;;11.07;4.80;;;17.40;12.30;;;;;;5014637;28;20488;-84
2022/04/12 09:00:53;;;;;;;11.23;5.90;;;17.80;13.80;;;;;;5015266;28;20490;-84
2022/04/12 09:03:20;;;;;;;12.00;5.33;;;18.30;13.40;;;;;;5014128;28;20458;-84
2022/04/12 09:05:47;;;;;;;10.17;5.50;;;18.50;10.70;;;;;;5015814;28;20459;-83
2022/04/12 09:08:29;;;;;;;8.33;4.63;;;18.80;10.70;;;;;;5014702;28;20454;-83
2022/04/12 09:11:01;;;;;;;10.13;5.37;;;18.70;9.60;;;;;;5015003;28;20476;-85
2022/04/12 09:13:28;;;;;;;11.00;4.30;;;18.80;9.70;;;;;;5015482;28;20453;-84
2022/04/12 09:15:56;;;;;;;8.97;5.17;;;19.10;10.60;;;;;;5015124;28;20464;-84
2022/04/12 09:18:37;;;;;;;8.63;3.90;;;19.20;9.40;;;;;;5013006;28;20546;-84
2022/04/12 09:21:14;;;;;;;12.33;4.37;;;19.50;8.20;;;;;;5015523;28;20494;-84
2022/04/12 09:23:44;;;;;;;8.73;4.77;;;19.60;6.30;;;;;;5015806;28;20597;-84
2022/04/12 09:26:16;;;;;;;8.93;4.43;;;20.00;4.50;;;;;;5015219;28;20453;-84
2022/04/12 09:28:43;;;;;;;7.43;3.70;;;20.30;4.70;;;;;;5014860;28;20994;-84
2022/04/12 09:31:15;;;;;;;11.50;4.13;;;20.30;4.70;;;;;;5014572;28;20501;-84
2022/04/12 09:33:42;;;;;;;6.50;3.20;;;20.40;4.80;;;;;;5015418;28;20463;-83
2022/04/12 09:36:09;;;;;;;7.80;3.93;;;20.70;5.00;;;;;;5015416;28;20466;-84
2022/04/12 09:38:37;;;;;;;8.03;3.77;;;20.60;5.00;;;;;;5014211;28;20488;-84
2022/04/12 09:41:18;;;;;;;12.27;4.27;;;20.80;4.60;;;;;;5015360;28;20863;-83
2022/04/12 09:43:56;;;;;;;7.10;3.77;;;21.10;1.70;;;;;;5015372;28;20939;-83
2022/04/12 09:46:23;;;;;;;8.07;3.87;;;21.30;1.30;;;;;;5014591;28;20455;-83
2022/04/12 09:48:52;;;;;;;7.00;3.40;;;21.50;1.00;;;;;;5014473;28;20469;-84
2022/04/12 09:51:21;;;;;;;10.97;3.33;;;21.60;1.00;;;;;;5014137;28;20478;-84
2022/04/12 09:53:48;;;;;;;6.57;2.97;;;21.90;2.00;;;;;;5014072;28;20479;-84
2022/04/12 09:56:18;;;;;;;8.20;3.60;;;21.90;1.00;;;;;;5015150;28;20464;-85
2022/04/12 09:58:47;;;;;;;6.97;3.43;;;21.80;1.00;;;;;;5013710;28;20491;-84
2022/04/12 10:01:15;;;;;;;7.93;3.53;;;21.50;1.00;;;;;;5013524;28;20487;-85
2022/04/12 10:03:45;;;;;;;11.73;7.60;;;21.80;1.00;;;;;;5014591;28;20539;-82
2022/04/12 10:06:14;;;;;;;11.03;5.20;;;21.90;1.00;;;;;;5014445;28;20460;-84
2022/04/12 10:08:42;;;;;;;6.57;3.27;;;22.10;1.00;;;;;;5013442;28;20945;-84
2022/04/12 10:11:11;;;;;;;7.13;3.40;;;22.70;1.00;;;;;;5014167;28;20488;-85
2022/04/12 10:13:40;;;;;;;7.07;3.30;;;23.20;1.00;;;;;;5014722;28;20454;-85
2022/04/12 10:16:08;;;;;;;9.50;3.67;;;23.00;1.00;;;;;;5014103;28;20487;-84
2022/04/12 10:19:00;;;;;;;7.60;3.73;;;23.40;1.00;;;;;;5016057;28;20492;-86
2022/04/12 10:21:26;;;;;;;7.40;3.20;;;23.10;1.00;;;;;;5014647;28;20480;-82
2022/04/12 10:23:57;;;;;;;7.17;3.63;;;23.20;1.00;;;;;;5014094;28;20457;-83
2022/04/12 10:26:26;;;;;;;7.00;3.13;;;23.30;1.00;;;;;;5015059;28;20452;-83
2022/04/12 10:28:59;;;;;;;8.93;3.90;;;23.40;1.00;;;;;;5014955;28;20486;-84
2022/04/12 10:31:30;;;;;;;13.07;4.20;;;23.80;1.00;;;;;;5014768;28;20535;-84
2022/04/12 10:34:10;;;;;;;7.67;2.67;;;23.70;1.00;;;;;;5015067;28;20457;-85
2022/04/12 10:36:59;;;;;;;7.27;3.87;;;23.70;1.00;;;;;;5015494;28;20457;-84
2022/04/12 10:39:31;;;;;;;10.20;3.67;;;23.30;1.00;;;;;;5014212;28;20453;-85
2022/04/12 10:42:01;;;;;;;6.80;3.50;;;23.60;1.00;;;;;;5015848;28;20477;-85
2022/04/12 10:44:36;;;;;;;8.10;3.47;;;23.80;1.00;;;;;;5014965;28;20457;-85
2022/04/12 10:47:04;;;;;;;10.80;3.87;;;24.10;1.00;;;;;;5014145;28;20870;-85
2022/04/12 10:49:36;;;;;;;6.73;3.23;;;24.10;1.00;;;;;;5013414;28;20488;-86
2022/04/12 10:52:03;;;;;;;8.00;3.90;;;23.70;1.00;;;;;;5015313;28;20858;-83
2022/04/12 10:54:31;;;;;;;13.87;4.07;;;23.90;1.00;;;;;;5014727;28;20464;-86
2022/04/12 10:57:23;;;;;;;7.33;3.77;;;23.80;1.00;;;;;;5014136;28;20459;-85
2022/04/12 10:59:53;;;;;;;7.90;3.30;;;23.80;1.00;;;;;;5004945;28;20449;-85
2022/04/12 11:02:20;;;;;;;7.50;3.70;;;24.30;1.00;;;;;;5016796;28;20452;-85
2022/04/12 11:04:47;;;;;;;9.07;4.20;;;24.30;1.00;;;;;;5013881;28;20453;-84
2022/04/12 11:07:31;;;;;;;7.60;3.73;;;24.70;1.00;;;;;;5013534;28;20453;-84
2022/04/12 11:10:30;;;;;;;8.70;3.47;;;25.10;1.00;;;;;;5012951;28;20503;-84
2022/04/12 11:13:07;;;;;;;5.97;2.80;;;25.00;1.00;;;;;;5014109;28;20448;-84
2022/04/12 11:15:37;;;;;;;10.40;3.50;;;25.00;1.00;;;;;;5015586;28;20805;-84
2022/04/12 11:18:09;;;;;;;23.93;4.03;;;25.30;1.00;;;;;;5013746;28;21062;-84
2022/04/12 11:20:36;;;;;;;12.37;3.97;;;25.50;1.00;;;;;;5013243;28;20855;-83
2022/04/12 11:23:08;;;;;;;5.73;2.80;;;25.90;1.00;;;;;;5014033;28;20459;-83
2022/04/12 11:25:36;;;;;;;9.83;3.27;;;26.10;1.00;;;;;;5013246;28;20461;-85
2022/04/12 11:28:04;;;;;;;6.40;3.00;;;25.80;1.00;;;;;;5012742;28;20457;-84
2022/04/12 11:30:30;;;;;;;10.23;2.70;;;26.50;1.00;;;;;;5012115;28;21028;-83
2022/04/12 11:32:58;;;;;;;9.10;2.97;;;27.10;1.00;;;;;;5012467;28;20457;-84
2022/04/12 11:35:26;;;;;;;6.80;2.90;;;27.10;1.00;;;;;;5011739;28;20472;-85
2022/04/12 11:37:53;;;;;;;10.63;2.80;;;26.20;1.00;;;;;;5013615;28;20456;-84
2022/04/12 11:40:19;;;;;;;5.50;2.20;;;26.30;1.00;;;;;;5012302;28;20473;-84
2022/04/12 11:42:46;;;;;;;5.17;2.20;;;26.10;1.00;;;;;;5014609;28;20453;-83
2022/04/12 11:45:14;;;;;;;5.93;2.07;;;26.10;1.00;;;;;;5014462;28;20453;-83
2022/04/12 11:47:44;;;;;;;5.40;1.93;;;26.00;1.00;;;;;;5013933;28;20452;-84
2022/04/12 11:50:19;;;;;;;8.13;2.43;;;26.60;1.00;;;;;;5012913;28;20560;-84
2022/04/12 11:52:46;;;;;;;8.10;2.20;;;26.60;1.00;;;;;;5012756;28;20463;-84
2022/04/12 11:55:13;;;;;;;7.50;2.40;;;27.40;1.00;;;;;;5012357;28;20834;-84
2022/04/12 11:57:40;;;;;;;6.63;2.33;;;27.70;1.00;;;;;;5012886;28;20460;-85
2022/04/12 12:00:08;;;;;;;9.30;2.60;;;27.90;1.00;;;;;;5011213;28;20449;-84
2022/04/12 12:02:39;;;;;;;8.50;2.50;;;27.70;1.00;;;;;;5012478;28;20471;-84
2022/04/12 12:05:08;;;;;;;6.73;1.77;;;28.10;1.00;;;;;;5012463;28;20901;-84
2022/04/12 12:07:37;;;;;;;7.50;2.10;;;28.00;1.00;;;;;;5012453;28;20491;-84
2022/04/12 12:10:06;;;;;;;5.60;2.00;;;27.80;1.00;;;;;;5011447;28;20835;-84
2022/04/12 12:12:34;;;;;;;8.17;1.80;;;28.50;1.00;;;;;;5012125;28;20958;-84
2022/04/12 12:15:17;;;;;;;9.33;2.67;;;27.70;1.00;;;;;;5012400;28;20453;-85
2022/04/12 12:17:45;;;;;;;6.20;2.40;;;27.40;1.00;;;;;;5010424;28;20453;-84
2022/04/12 12:20:13;;;;;;;6.17;2.30;;;26.20;1.00;;;;;;5009675;28;20461;-84
2022/04/12 12:22:43;;;;;;;9.40;2.63;;;25.70;1.00;;;;;;5012195;28;20453;-84
2022/04/12 12:25:18;;;;;;;12.53;4.07;;;25.40;1.00;;;;;;5013503;28;20456;-84
2022/04/12 12:27:49;;;;;;;6.20;2.20;;;25.10;1.00;;;;;;5015829;28;20916;-84
2022/04/12 12:30:18;;;;;;;11.40;7.20;;;25.30;1.00;;;;;;5015769;28;20484;-83
2022/04/12 12:32:45;;;;;;;9.00;3.10;;;24.70;1.00;;;;;;5014382;28;20453;-83
2022/04/12 12:35:13;;;;;;;8.33;2.80;;;24.60;1.00;;;;;;5014207;28;20453;-84
2022/04/12 12:37:43;;;;;;;9.67;3.03;;;24.30;1.00;;;;;;5016311;28;20456;-84
2022/04/12 12:40:21;;;;;;;5.30;2.27;;;24.20;1.00;;;;;;5013713;28;20846;-83
2022/04/12 12:42:50;;;;;;;10.23;3.03;;;23.90;1.00;;;;;;5015713;28;20453;-83
2022/04/12 12:45:19;;;;;;;5.33;2.10;;;24.10;1.00;;;;;;5014231;28;20452;-84
2022/04/12 12:47:48;;;;;;;5.97;2.40;;;24.50;1.00;;;;;;5014728;28;20471;-82
2022/04/12 12:50:16;;;;;;;6.30;1.87;;;25.10;1.00;;;;;;5015941;28;20485;-84
2022/04/12 12:52:44;;;;;;;10.07;3.03;;;25.70;1.00;;;;;;5013296;28;20468;-83
2022/04/12 12:55:15;;;;;;;9.40;2.90;;;26.10;1.00;;;;;;5015004;28;20511;-83
2022/04/12 12:57:46;;;;;;;8.03;2.37;;;26.80;1.00;;;;;;5015472;28;20453;-83